Aérodrome :
LOGIN :

S'inscrire | Disclaimer

   EN    FR    IT 

 










Légende :    VFR   VFR Marginal   IFR   IFR Intensif   IFR Très Intensif
Visi : 
Plafond : 
>= 8 km
>= 3000ft
5 à 8 km
1000 à 3000 ft
1500m à 5 km
500 à 1000 ft
800 à 1500m
200 à 500 ft
< 800m
< 200 ft
Symboles :   Orages  Brouillard  Fortes neiges  Fortes précipitations  Vent > 20 kt
SIGMETs :   Divers  Orages  Givrage  Turbulence  Onde Orograph.  Cendres Volcan.







- Altitude de l'aérodrome : 218 ft
- Code IATA : LBG
- Voir les cartes d'approche


LFPB - Paris / Le Bourget

DERNIER METAR :
  • 280800Z AUTO 24007KT 210V270 9999 BKN008 07/05 Q1017 BECMG SCT016TCU BKN100

METARs EXPIRÉS :
  • 280730Z AUTO 25005KT 210V280 9999 OVC008 07/06 Q1017 BECMG SCT016TCU BKN100
  • 280700Z AUTO 26007KT 230V290 9999 BKN009 BKN022 BKN031 06/05 Q1016 BECMG SCT016TCU BKN100
  • 280630Z AUTO 24007KT 8000 -RA FEW012/// SCT017/// BKN022/// ///TCU 06/05 Q1016 NOSIG
  • 280600Z AUTO 24005KT 9000 -DZ FEW012/// BKN017/// BKN026/// ///TCU 06/05 Q1016 TEMPO 4000 RA BKN014
  • 280530Z AUTO VRB02KT 7000 -RA BKN019/// OVC025/// ///CB 05/04 Q1016 TEMPO 4000 RA BKN014

TAF AMD TAF LFPB
Valide du 28 à 06h jusqu'au 29 à 06h UTC


280643Z 2806/2906 24005KT 9999 BKN020
TEMPO 2806/2808 BKN008
BECMG 2808/2810 SCT016TCU BKN100
PROB30
TEMPO 2813/2816 31010G25KT 4000 SHRAGS FEW020CB BKN020
BECMG 2817/2819 CAVOK
PROB30
TEMPO 2904/2906 4000 BR
ATIS : +33 1 48 62 43 92
Pas de NOTAMs connus pour ce terrain.



MET'MAP, la Météo Aéronautique d'un coup d'oeil ! - Copyright ORBIFLY Décembre 2007 - Disclaimer

ORBIFLY MET'MAP TEAM :

Programmation & Développement : Alexandra Zaïnal
Conception & Développement : Baudouin d'Aumeries
Co-Programmation & Développement : Marc-Olivier Méhu
Soutien technique & logistique : Manuel Goepfert

Contact : metmap@orbifly.com




SOURCES & CREDITS :

   NOAA